Time;durP1;ratioP1;P1;durP2;ratioP2;P2;SDS_P1;SDS_P2;PMS_P1;PMS_P2;Temp;Humidity;BMP_temperature;BMP_pressure;BME280_temperature;BME280_humidity;BME280_pressure;Samples;Min_cycle;Max_cycle;Signal;HPM_P1;HPM_P2
2021/11/02 00:03:00;;;;;;;8.32;2.45;;;;;;;8.60;82.21;99945.13;10279375;28;20068;-71
2021/11/02 00:07:57;;;;;;;9.02;2.28;;;;;;;8.53;82.54;99939.34;10269216;28;20072;-72
2021/11/02 00:12:53;;;;;;;5.70;2.22;;;;;;;8.51;82.06;99936.16;10280447;28;20036;-72
2021/11/02 00:17:52;;;;;;;10.40;2.70;;;;;;;8.46;82.91;99937.13;10273627;28;20114;-72
2021/11/02 00:22:55;;;;;;;8.27;2.50;;;;;;;8.42;82.80;99934.25;10280439;28;20110;-72
2021/11/02 00:27:52;;;;;;;7.03;2.40;;;;;;;8.40;83.12;99938.41;10263467;28;20072;-71
2021/11/02 00:32:53;;;;;;;7.30;2.65;;;;;;;8.36;83.40;99940.94;10263882;28;20071;-71
2021/11/02 00:37:50;;;;;;;9.85;2.72;;;;;;;8.35;83.01;99927.66;10267555;28;20060;-72
2021/11/02 00:42:56;;;;;;;9.77;2.78;;;;;;;8.30;83.79;99930.53;10284912;28;20071;-71
2021/11/02 00:47:53;;;;;;;7.40;2.47;;;;;;;8.30;83.56;99933.25;10274795;28;20045;-71
2021/11/02 00:52:49;;;;;;;8.82;2.35;;;;;;;8.28;83.83;99938.22;10281193;28;20048;-71
2021/11/02 00:57:46;;;;;;;7.25;2.55;;;;;;;8.21;83.74;99934.09;10279499;28;20044;-72
2021/11/02 01:02:43;;;;;;;8.77;2.50;;;;;;;8.19;84.33;99930.88;10272888;28;20041;-72
2021/11/02 01:07:41;;;;;;;12.98;2.17;;;;;;;8.11;84.19;99928.94;10283967;28;20457;-72
2021/11/02 01:12:38;;;;;;;9.35;2.17;;;;;;;8.06;84.19;99926.38;10276245;28;20510;-71
2021/11/02 01:17:35;;;;;;;8.05;2.25;;;;;;;8.03;83.96;99921.59;10279196;28;20068;-71
2021/11/02 01:22:31;;;;;;;8.00;2.22;;;;;;;8.02;84.58;99911.81;10297519;28;20040;-72
2021/11/02 01:27:28;;;;;;;10.90;2.00;;;;;;;8.01;84.62;99908.28;10288847;28;20186;-72
2021/11/02 01:32:24;;;;;;;8.63;2.58;;;;;;;8.07;84.42;99906.19;10304413;28;20505;-72
2021/11/02 01:37:21;;;;;;;8.45;2.33;;;;;;;8.00;84.57;99903.16;10286360;28;20064;-72
2021/11/02 01:42:21;;;;;;;8.10;2.05;;;;;;;8.00;85.12;99905.88;10275933;28;20550;-72
2021/11/02 01:47:18;;;;;;;11.38;2.40;;;;;;;7.99;84.97;99905.06;10280805;28;20466;-72
2021/11/02 01:52:15;;;;;;;10.95;2.97;;;;;;;7.97;85.02;99912.75;10283936;28;20067;-72
2021/11/02 01:57:11;;;;;;;7.97;2.60;;;;;;;7.93;84.86;99908.28;10291786;28;20503;-72
2021/11/02 02:02:30;;;;;;;12.40;3.25;;;;;;;7.95;84.57;99914.19;10282189;28;20444;-72
2021/11/02 02:07:35;;;;;;;11.70;2.95;;;;;;;7.93;85.35;99911.78;10278332;28;20077;-72
2021/11/02 02:12:43;;;;;;;10.60;2.65;;;;;;;7.90;86.22;99911.66;10267468;28;20064;-71
2021/11/02 02:18:08;;;;;;;10.40;2.38;;;;;;;7.87;86.21;99912.28;10277012;28;20033;-72
2021/11/02 02:23:30;;;;;;;10.55;2.65;;;;;;;7.85;85.69;99917.25;10268746;28;20119;-72
2021/11/02 02:28:36;;;;;;;7.80;2.75;;;;;;;7.83;85.97;99916.75;10276606;28;20073;-72
2021/11/02 02:33:39;;;;;;;10.27;2.85;;;;;;;7.75;86.47;99910.16;10284445;28;20566;-72
2021/11/02 02:38:40;;;;;;;13.27;2.80;;;;;;;7.71;86.48;99899.13;10283385;28;20045;-72
2021/11/02 02:43:40;;;;;;;12.13;2.80;;;;;;;7.73;86.28;99891.47;10276654;28;20043;-72
2021/11/02 02:48:40;;;;;;;14.15;3.45;;;;;;;7.67;86.70;99898.16;10271062;28;20072;-72
2021/11/02 02:53:42;;;;;;;10.38;2.88;;;;;;;7.65;87.20;99894.97;10280540;28;20473;-72
2021/11/02 02:58:42;;;;;;;8.35;3.53;;;;;;;7.65;87.38;99899.59;10268127;28;20104;-72
2021/11/02 03:03:46;;;;;;;17.92;4.07;;;;;;;7.60;87.36;99903.28;10266745;28;20164;-72
2021/11/02 03:08:43;;;;;;;14.00;3.03;;;;;;;7.57;87.42;99910.16;10275617;28;20045;-72
2021/11/02 03:13:47;;;;;;;9.95;3.33;;;;;;;7.54;87.25;99907.25;10265240;28;20488;-72
2021/11/02 03:19:17;;;;;;;9.23;3.10;;;;;;;7.49;86.87;99912.84;10269680;28;20049;-72
2021/11/02 03:50:57;;;;;;;13.77;4.88;;;;;;;7.25;87.08;99892.31;10278299;28;20095;-72
2021/11/02 03:56:14;;;;;;;11.98;3.17;;;;;;;7.21;88.12;99896.78;10277012;28;20093;-72
2021/11/02 04:27:40;;;;;;;10.68;3.20;;;;;;;6.99;87.61;99911.25;10264822;28;20187;-72
2021/11/02 04:43:30;;;;;;;9.65;3.42;;;;;;;6.79;87.98;99912.59;10257469;28;20064;-72
2021/11/02 05:09:23;;;;;;;9.35;3.58;;;;;;;6.63;87.66;99898.59;10280097;28;20090;-72
2021/11/02 06:28:43;;;;;;;14.65;4.57;;;;;;;6.84;89.34;99912.47;10259334;28;20499;-73
2021/11/02 06:33:49;;;;;;;12.35;5.45;;;;;;;6.84;89.89;99920.59;10269343;28;20047;-72
2021/11/02 06:54:29;;;;;;;14.18;5.05;;;;;;;6.95;90.19;99938.25;10257713;28;20044;-73
2021/11/02 06:59:57;;;;;;;12.32;4.68;;;;;;;6.92;89.94;99938.88;10267926;28;20533;-72
2021/11/02 07:15:59;;;;;;;16.60;4.97;;;;;;;7.03;90.51;99966.59;10253059;28;20041;-71
2021/11/02 07:21:11;;;;;;;13.00;4.80;;;;;;;7.09;90.88;99975.41;10264310;28;20518;-72
2021/11/02 07:26:22;;;;;;;17.23;5.75;;;;;;;7.15;90.72;99979.63;10260459;28;20098;-73
2021/11/02 08:50:52;;;;;;;14.32;5.95;;;;;;;8.00;86.86;99939.34;10259258;28;20465;-73
2021/11/02 08:55:51;;;;;;;10.90;4.65;;;;;;;8.07;87.39;99933.41;10257180;28;20041;-73
2021/11/02 09:00:49;;;;;;;21.77;5.90;;;;;;;8.26;87.42;99935.03;10262910;28;20045;-74
2021/11/02 09:06:00;;;;;;;12.88;5.47;;;;;;;8.38;87.17;99940.63;10258228;28;20160;-72
2021/11/02 09:11:00;;;;;;;15.45;5.00;;;;;;;8.55;86.33;99935.19;10259741;28;20408;-73
2021/11/02 09:16:02;;;;;;;14.90;5.00;;;;;;;8.69;85.87;99936.94;10262060;28;20052;-73
2021/11/02 09:20:58;;;;;;;16.17;4.40;;;;;;;8.78;85.09;99937.72;10255379;28;20079;-72
2021/11/02 09:25:55;;;;;;;12.18;4.97;;;;;;;8.99;83.98;99929.63;10265923;28;20124;-72
2021/11/02 09:30:53;;;;;;;13.10;4.75;;;;;;;9.15;84.25;99932.63;10266752;28;20068;-73
2021/11/02 09:35:59;;;;;;;14.45;4.07;;;;;;;9.26;83.85;99929.19;10252344;28;20507;-72
2021/11/02 09:41:08;;;;;;;13.68;5.13;;;;;;;9.40;83.63;99928.97;10255577;28;20040;-73
2021/11/02 09:46:37;;;;;;;15.15;5.00;;;;;;;9.39;82.47;99927.34;10259784;28;20095;-72
2021/11/02 09:51:59;;;;;;;9.77;4.70;;;;;;;9.47;83.18;99928.47;10269563;28;20417;-72
2021/11/02 09:57:20;;;;;;;10.52;5.18;;;;;;;9.58;82.80;99920.69;10273171;28;20076;-73
2021/11/02 10:02:37;;;;;;;15.27;4.55;;;;;;;9.76;81.79;99924.09;10261987;28;21001;-71
2021/11/02 10:07:48;;;;;;;14.20;4.55;;;;;;;9.83;80.36;99925.16;10268689;28;20546;-73
2021/11/02 10:13:13;;;;;;;15.25;5.07;;;;;;;9.96;80.33;99925.25;10260104;28;20063;-72
2021/11/02 10:18:34;;;;;;;17.38;5.93;;;;;;;10.01;79.98;99919.59;10269987;28;20110;-73
2021/11/02 10:24:02;;;;;;;9.82;4.50;;;;;;;10.03;80.06;99922.78;10270016;28;20048;-72
2021/11/02 10:29:07;;;;;;;15.13;6.50;;;;;;;10.06;79.18;99916.66;10261221;28;20038;-73
2021/11/02 10:34:11;;;;;;;14.80;4.72;;;;;;;10.14;79.13;99912.25;10259611;28;20057;-72
2021/11/02 10:39:19;;;;;;;;;;;;;;;10.23;79.07;99921.97;10266616;28;20055;-72
2021/11/02 10:44:30;;;;;;;18.30;5.00;;;;;;;10.37;78.42;99915.44;10268733;28;19921;-73
2021/11/02 10:49:51;;;;;;;14.20;4.75;;;;;;;10.50;78.18;99912.41;10261817;28;20045;-72
2021/11/02 10:55:09;;;;;;;14.15;4.95;;;;;;;10.59;77.74;99917.03;10267873;28;20076;-73
2021/11/02 11:00:10;;;;;;;13.40;5.53;;;;;;;10.58;76.44;99918.94;10256444;28;20053;-72
2021/11/02 11:05:08;;;;;;;15.02;4.97;;;;;;;10.62;76.17;99916.34;10271205;28;20072;-72
2021/11/02 11:10:07;;;;;;;10.23;5.30;;;;;;;10.72;75.68;99910.41;10263857;28;20131;-72
2021/11/02 11:15:07;;;;;;;12.63;5.20;;;;;;;10.92;75.71;99897.81;10251764;28;20049;-72
2021/11/02 11:20:12;;;;;;;17.45;6.18;;;;;;;11.13;75.35;99893.03;10254774;28;20057;-73
2021/11/02 11:25:16;;;;;;;9.95;4.70;;;;;;;11.12;75.24;99898.88;10264645;28;20045;-72
2021/11/02 11:30:15;;;;;;;13.45;5.50;;;;;;;11.12;74.53;99894.19;10269288;28;20077;-73
2021/11/02 11:35:12;;;;;;;13.50;5.60;;;;;;;11.13;73.94;99887.56;10227469;28;20084;-72
2021/11/02 11:40:12;;;;;;;16.60;5.75;;;;;;;11.22;73.46;99878.47;10264126;28;20084;-72
2021/11/02 11:45:14;;;;;;;16.92;5.55;;;;;;;11.26;73.75;99871.19;10256640;28;20069;-72
2021/11/02 11:50:20;;;;;;;12.00;5.55;;;;;;;11.36;73.00;99874.22;10256230;28;20104;-72
2021/11/02 11:55:25;;;;;;;11.55;5.70;;;;;;;11.49;71.83;99877.75;10268399;28;20079;-72
2021/11/02 12:00:25;;;;;;;12.13;4.72;;;;;;;11.69;72.02;99880.69;10262878;28;20101;-73
2021/11/02 12:05:22;;;;;;;12.65;4.55;;;;;;;11.85;70.54;99873.34;10257251;28;20045;-72
2021/11/02 12:10:23;;;;;;;13.65;4.82;;;;;;;11.97;69.72;99870.63;10258518;28;20049;-72
2021/11/02 12:15:38;;;;;;;10.60;4.70;;;;;;;11.83;70.14;99875.63;10256798;28;20694;-72
2021/11/02 12:20:38;;;;;;;18.10;5.15;;;;;;;11.68;70.76;99885.38;10262506;28;20053;-72
2021/11/02 12:25:36;;;;;;;11.25;4.60;;;;;;;11.56;70.35;99883.47;10271333;28;20045;-72
2021/11/02 12:30:33;;;;;;;12.25;4.57;;;;;;;11.48;70.93;99870.69;10255243;28;20622;-72
2021/11/02 12:35:45;;;;;;;14.43;5.10;;;;;;;11.36;70.83;99873.44;10258383;28;20131;-71
2021/11/02 12:40:45;;;;;;;13.75;5.60;;;;;;;11.34;72.63;99864.78;10250040;28;20565;-72
2021/11/02 12:45:50;;;;;;;12.50;5.43;;;;;;;11.28;72.15;99869.69;10254679;28;20572;-73
2021/11/02 12:50:49;;;;;;;12.90;4.60;;;;;;;11.22;72.65;99862.06;10269333;28;20045;-72
2021/11/02 12:55:46;;;;;;;11.45;5.40;;;;;;;11.14;73.27;99872.78;10272937;28;20430;-72
2021/11/02 13:00:58;;;;;;;13.25;5.20;;;;;;;11.20;73.55;99865.13;10256961;28;20450;-72
2021/11/02 13:06:07;;;;;;;19.33;5.70;;;;;;;11.24;72.88;99865.25;10263540;28;20059;-72
2021/11/02 13:11:11;;;;;;;12.50;5.65;;;;;;;11.26;73.44;99868.44;10259585;28;20071;-73
2021/11/02 13:16:08;;;;;;;12.57;6.07;;;;;;;11.27;73.69;99870.03;10269884;28;20155;-73
2021/11/02 13:21:18;;;;;;;20.42;5.57;;;;;;;11.34;73.77;99870.25;10245960;28;20049;-73
2021/11/02 13:26:19;;;;;;;14.30;4.88;;;;;;;11.38;74.07;99868.44;10250946;28;20068;-72
2021/11/02 13:31:35;;;;;;;11.68;5.00;;;;;;;11.45;73.85;99865.91;10262005;28;20521;-72
2021/11/02 13:36:38;;;;;;;13.38;4.90;;;;;;;11.55;74.65;99870.09;10264820;28;20453;-72
2021/11/02 13:41:38;;;;;;;12.98;5.72;;;;;;;11.59;73.47;99871.81;10267019;28;20049;-73
2021/11/02 13:46:41;;;;;;;11.27;4.75;;;;;;;11.62;72.33;99872.25;10248915;28;20073;-71
2021/11/02 13:51:38;;;;;;;15.18;5.30;;;;;;;11.64;70.21;99875.47;10268244;28;20046;-72
2021/11/02 13:56:38;;;;;;;6.30;2.53;;;;;;;11.62;68.36;99875.78;10260969;28;20045;-71
2021/11/02 14:01:52;;;;;;;6.20;1.52;;;;;;;11.54;65.17;99866.56;10260947;28;20045;-72
2021/11/02 14:07:03;;;;;;;5.13;1.95;;;;;;;11.56;65.47;99875.25;10263323;28;20045;-74
2021/11/02 14:12:00;;;;;;;7.05;1.60;;;;;;;11.52;64.67;99873.53;10255913;28;20388;-71
2021/11/02 14:16:57;;;;;;;5.18;1.17;;;;;;;11.53;64.07;99872.38;10252455;28;20049;-72
2021/11/02 14:21:54;;;;;;;6.13;1.30;;;;;;;11.55;64.22;99876.38;10262999;28;20057;-72
2021/11/02 14:26:50;;;;;;;4.28;1.20;;;;;;;11.52;63.11;99871.59;10251991;28;20045;-72
2021/11/02 14:31:47;;;;;;;3.30;0.90;;;;;;;11.52;63.66;99877.06;10267486;28;20068;-72
2021/11/02 14:36:44;;;;;;;9.00;1.58;;;;;;;11.47;63.83;99873.78;10264839;28;20055;-72
2021/11/02 14:41:48;;;;;;;3.45;1.08;;;;;;;11.43;63.71;99878.34;10272854;28;20521;-72
2021/11/02 14:46:49;;;;;;;5.20;0.93;;;;;;;11.40;63.06;99874.34;10268228;28;20068;-73
2021/11/02 14:51:55;;;;;;;3.97;1.10;;;;;;;11.32;62.84;99880.72;10278927;28;20053;-71
2021/11/02 14:56:51;;;;;;;4.75;0.88;;;;;;;11.26;62.21;99879.38;10256672;28;20456;-72
2021/11/02 15:02:05;;;;;;;4.20;0.80;;;;;;;11.19;62.37;99896.38;10266414;28;20045;-72
2021/11/02 15:07:03;;;;;;;3.70;0.85;;;;;;;11.10;62.49;99885.53;10261910;28;20461;-72
2021/11/02 15:12:01;;;;;;;3.75;1.17;;;;;;;11.01;63.72;99895.78;10256216;28;20102;-72
2021/11/02 15:17:04;;;;;;;6.35;1.10;;;;;;;10.87;64.98;99889.84;10255830;28;20099;-73
2021/11/02 15:22:18;;;;;;;5.60;1.20;;;;;;;10.81;66.30;99902.13;10266589;28;20041;-72
2021/11/02 15:27:17;;;;;;;7.78;1.40;;;;;;;10.72;66.92;99889.38;10256795;28;20061;-73
2021/11/02 15:32:14;;;;;;;5.93;1.48;;;;;;;10.66;67.71;99896.19;10270589;28;20131;-72
2021/11/02 15:37:20;;;;;;;5.13;1.65;;;;;;;10.61;68.80;99898.34;10263758;28;20098;-72
2021/11/02 15:42:25;;;;;;;5.75;1.45;;;;;;;10.52;70.06;99895.69;10268259;28;20050;-72
2021/11/02 15:47:24;;;;;;;7.90;2.00;;;;;;;10.46;70.95;99899.75;10254648;28;20452;-72
2021/11/02 15:52:20;;;;;;;10.13;3.13;;;;;;;10.39;71.70;99907.72;10235141;28;20427;-73
2021/11/02 15:57:17;;;;;;;11.77;3.03;;;;;;;10.29;72.54;99898.81;10234019;28;20045;-72
2021/11/02 16:02:32;;;;;;;10.05;3.22;;;;;;;10.29;72.71;99904.25;10231769;28;20057;-72
2021/11/02 16:07:32;;;;;;;12.38;3.80;;;;;;;10.30;73.65;99908.63;10234001;28;20673;-73
2021/11/02 16:12:36;;;;;;;13.30;3.80;;;;;;;10.18;74.68;99903.03;10249220;28;20257;-73
2021/11/02 16:17:50;;;;;;;8.23;2.95;;;;;;;10.11;75.46;99919.19;10274463;28;20059;-72
2021/11/02 16:22:54;;;;;;;8.75;3.70;;;;;;;10.06;75.51;99916.66;10263296;28;20049;-71
2021/11/02 16:28:14;;;;;;;10.02;3.50;;;;;;;9.99;75.48;99916.38;10271519;28;20060;-71
2021/11/02 16:33:11;;;;;;;8.35;3.40;;;;;;;9.95;76.34;99915.44;10268849;28;20558;-72
2021/11/02 16:38:33;;;;;;;8.95;3.47;;;;;;;9.93;76.94;99920.44;10268237;28;20057;-73
2021/11/02 16:43:52;;;;;;;11.02;3.53;;;;;;;9.93;77.43;99918.50;10273182;28;20083;-72
2021/11/02 16:49:04;;;;;;;10.85;3.83;;;;;;;9.92;77.27;99921.59;10267998;28;20548;-72
2021/11/02 16:54:08;;;;;;;11.60;4.20;;;;;;;9.85;77.69;99922.91;10250370;28;20091;-72
2021/11/02 16:59:05;;;;;;;9.93;4.10;;;;;;;9.76;78.11;99927.63;10265994;28;20140;-72
2021/11/02 17:04:13;;;;;;;12.68;3.72;;;;;;;9.73;79.04;99931.03;10258293;28;20037;-72
2021/11/02 17:09:11;;;;;;;9.43;3.88;;;;;;;9.74;78.40;99927.16;10264823;28;20093;-73
2021/11/02 17:14:11;;;;;;;12.15;4.90;;;;;;;9.67;78.89;99938.59;10255219;28;20087;-72
2021/11/02 17:19:07;;;;;;;12.05;4.70;;;;;;;9.55;79.36;99924.88;10257558;28;20048;-73
2021/11/02 17:24:07;;;;;;;8.18;5.03;;;;;;;9.42;79.42;99932.19;10274677;28;20099;-71
2021/11/02 17:29:04;;;;;;;16.75;5.18;;;;;;;9.31;79.51;99936.41;10249839;28;20037;-72
2021/11/02 17:34:01;;;;;;;17.17;5.78;;;;;;;9.18;79.77;99938.22;10269672;28;20037;-71
2021/11/02 17:38:58;;;;;;;12.23;5.68;;;;;;;9.04;80.72;99946.59;10265032;28;20045;-72
2021/11/02 17:43:56;;;;;;;14.98;5.93;;;;;;;8.94;81.04;99952.41;10286247;28;20056;-72
2021/11/02 17:48:55;;;;;;;11.68;5.93;;;;;;;8.84;81.33;99950.03;10283800;28;20068;-72
2021/11/02 17:53:52;;;;;;;12.65;5.82;;;;;;;8.75;82.08;99962.88;10281177;28;20072;-72
2021/11/02 17:58:50;;;;;;;13.75;5.90;;;;;;;8.67;82.40;99960.97;10272843;28;20069;-72
2021/11/02 18:03:47;;;;;;;11.32;6.43;;;;;;;8.59;82.46;99968.84;10269653;28;20065;-72
2021/11/02 18:08:46;;;;;;;14.82;6.50;;;;;;;8.54;82.78;99973.63;10261995;28;20045;-72
2021/11/02 18:13:44;;;;;;;18.58;7.55;;;;;;;8.49;82.89;99974.59;10240332;28;20049;-73
2021/11/02 18:18:42;;;;;;;12.38;6.45;;;;;;;8.42;82.62;99987.91;10227731;28;20442;-71
2021/11/02 18:23:41;;;;;;;14.85;7.00;;;;;;;8.36;83.60;99984.53;10238299;28;20737;-71
2021/11/02 18:28:38;;;;;;;15.38;7.40;;;;;;;8.30;83.11;99985.00;10231954;28;20099;-72
2021/11/02 18:33:35;;;;;;;12.73;6.80;;;;;;;8.24;83.66;99998.00;10233622;28;20042;-71
2021/11/02 18:38:32;;;;;;;15.82;7.82;;;;;;;8.20;83.63;99997.03;10249057;28;20141;-71
2021/11/02 18:43:30;;;;;;;16.27;8.10;;;;;;;8.13;83.68;99994.78;10268260;28;20057;-72
2021/11/02 18:48:27;;;;;;;15.40;8.85;;;;;;;8.06;83.78;99994.44;10257699;28;20049;-71
2021/11/02 18:53:25;;;;;;;14.65;8.38;;;;;;;8.00;84.63;99991.06;10270838;28;20522;-71
2021/11/02 18:58:22;;;;;;;16.00;8.02;;;;;;;7.94;84.29;99992.34;10250254;28;20069;-72
2021/11/02 19:03:19;;;;;;;18.17;8.95;;;;;;;7.88;84.61;100000.97;10265226;28;20045;-71
2021/11/02 19:08:17;;;;;;;16.65;9.65;;;;;;;7.83;84.89;100003.84;10248607;28;20157;-72
2021/11/02 19:13:15;;;;;;;16.83;9.70;;;;;;;7.84;84.52;99997.28;10265636;28;20071;-72
2021/11/02 19:18:13;;;;;;;19.05;10.00;;;;;;;7.80;84.65;100000.66;10259641;28;20530;-72
2021/11/02 19:23:10;;;;;;;16.63;9.48;;;;;;;7.71;85.26;100002.53;10259719;28;20702;-73
2021/11/02 19:28:07;;;;;;;19.52;11.18;;;;;;;7.67;85.53;100006.22;10248801;28;20053;-73
2021/11/02 19:33:05;;;;;;;19.52;10.57;;;;;;;7.64;85.98;100012.28;10263029;28;20073;-73
2021/11/02 19:38:02;;;;;;;21.90;11.80;;;;;;;7.62;85.71;100009.06;10265087;28;20049;-73
2021/11/02 19:42:59;;;;;;;22.17;12.43;;;;;;;7.57;86.17;100008.09;10255731;28;20073;-72
2021/11/02 19:47:56;;;;;;;18.77;12.07;;;;;;;7.55;85.44;100014.97;10265576;28;20505;-71
2021/11/02 19:52:55;;;;;;;22.65;12.18;;;;;;;7.51;85.45;100019.44;10276236;28;20037;-72
2021/11/02 19:57:52;;;;;;;23.33;12.70;;;;;;;7.46;85.97;100022.28;10282846;28;20127;-72
2021/11/02 20:02:48;;;;;;;21.50;13.43;;;;;;;7.43;85.92;100012.06;10259028;28;20087;-72
2021/11/02 20:07:52;;;;;;;23.75;14.40;;;;;;;7.38;85.64;100021.16;10265550;28;20530;-72
2021/11/02 20:13:12;;;;;;;22.15;13.65;;;;;;;7.33;86.07;100023.97;10250944;28;20075;-72
2021/11/02 20:18:09;;;;;;;20.92;12.80;;;;;;;7.26;86.58;100029.88;10262941;28;20561;-73
2021/11/02 20:23:06;;;;;;;21.52;12.45;;;;;;;7.21;85.85;100035.44;10264461;28;20521;-73
2021/11/02 20:28:05;;;;;;;23.02;13.43;;;;;;;7.19;85.57;100034.94;10259238;28;20568;-72
2021/11/02 20:33:02;;;;;;;22.83;13.90;;;;;;;7.18;85.91;100032.56;10262556;28;20107;-70
2021/11/02 20:37:59;;;;;;;24.48;14.15;;;;;;;7.16;85.76;100041.03;10260186;28;20045;-71
2021/11/02 20:43:02;;;;;;;23.13;13.75;;;;;;;7.13;85.81;100036.22;10261462;28;20064;-71
2021/11/02 20:47:59;;;;;;;33.58;15.18;;;;;;;7.12;85.77;100045.47;10245214;28;20111;-68
2021/11/02 20:52:55;;;;;;;21.98;14.93;;;;;;;7.07;85.71;100042.88;10259362;28;20756;-71
2021/11/02 20:57:54;;;;;;;28.92;15.45;;;;;;;7.03;85.70;100044.59;10254228;28;20144;-72
2021/11/02 21:02:52;;;;;;;26.85;16.67;;;;;;;6.94;86.28;100050.00;10253212;28;20072;-72
2021/11/02 21:07:56;;;;;;;25.20;15.30;;;;;;;6.89;86.23;100058.25;10249702;28;21864;-72
2021/11/02 21:12:55;;;;;;;24.45;15.02;;;;;;;6.84;86.28;100056.47;10255381;28;20042;-72
2021/11/02 21:17:58;;;;;;;26.80;14.73;;;;;;;6.78;85.93;100057.72;10251837;28;20471;-72
2021/11/02 21:22:55;;;;;;;22.58;14.07;;;;;;;6.72;86.19;100053.50;10263330;28;20066;-71
2021/11/02 21:27:53;;;;;;;26.02;16.38;;;;;;;6.70;86.52;100055.72;10271731;28;20071;-72
2021/11/02 21:32:52;;;;;;;26.33;16.65;;;;;;;6.66;86.65;100046.59;10279121;28;20048;-71
2021/11/02 21:38:08;;;;;;;25.52;16.98;;;;;;;6.65;87.20;100047.72;10274444;28;20681;-71
2021/11/02 21:43:14;;;;;;;29.05;17.27;;;;;;;6.61;86.87;100049.44;10280007;28;20095;-72
2021/11/02 21:48:20;;;;;;;25.17;16.20;;;;;;;6.57;86.93;100051.97;10282170;28;20180;-70
2021/11/02 21:53:28;;;;;;;25.50;16.30;;;;;;;6.51;87.30;100053.97;10282668;28;20061;-71
2021/11/02 21:58:46;;;;;;;30.88;17.63;;;;;;;6.49;87.04;100049.97;10286909;28;20093;-71
2021/11/02 22:03:45;;;;;;;24.42;16.20;;;;;;;6.44;87.18;100050.88;10258122;28;20102;-71
2021/11/02 22:08:42;;;;;;;23.17;16.95;;;;;;;6.42;86.95;100050.38;10263433;28;20134;-71
2021/11/02 22:13:39;;;;;;;23.60;16.02;;;;;;;6.40;87.16;100047.19;10256804;28;20091;-71
2021/11/02 22:18:36;;;;;;;26.55;16.30;;;;;;;6.37;87.65;100049.72;10258580;28;20060;-71
2021/11/02 22:23:34;;;;;;;24.10;15.57;;;;;;;6.36;87.55;100048.91;10278157;28;20071;-70
2021/11/02 22:28:31;;;;;;;24.65;16.55;;;;;;;6.35;87.57;100044.59;10260770;28;20045;-70
2021/11/02 22:33:28;;;;;;;23.83;17.15;;;;;;;6.33;87.68;100046.78;10255123;28;20077;-71
2021/11/02 22:38:24;;;;;;;25.77;16.85;;;;;;;6.29;87.72;100043.09;10269983;28;20061;-70
2021/11/02 22:43:21;;;;;;;21.92;16.38;;;;;;;6.26;87.70;100040.97;10259313;28;20076;-71
2021/11/02 22:48:18;;;;;;;26.50;16.33;;;;;;;6.27;87.51;100039.88;10265773;28;20103;-71
2021/11/02 22:53:15;;;;;;;24.33;15.77;;;;;;;6.29;87.70;100040.38;10273335;28;20045;-70
2021/11/02 22:58:12;;;;;;;25.55;15.63;;;;;;;6.32;87.85;100040.56;10257532;28;20087;-71
2021/11/02 23:03:12;;;;;;;24.17;16.23;;;;;;;6.34;88.20;100031.31;10254988;28;20076;-71
2021/11/02 23:08:11;;;;;;;21.70;14.95;;;;;;;6.30;87.93;100036.56;10256168;28;20136;-71
2021/11/02 23:13:08;;;;;;;23.63;16.63;;;;;;;6.30;88.35;100041.97;10270775;28;20072;-71
2021/11/02 23:18:06;;;;;;;22.08;15.38;;;;;;;6.32;88.44;100040.56;10254118;28;20511;-71
2021/11/02 23:23:21;;;;;;;27.55;16.90;;;;;;;6.38;88.44;100043.16;10265306;28;20070;-71
2021/11/02 23:28:19;;;;;;;28.15;17.83;;;;;;;6.41;89.10;100040.66;10268188;28;20415;-71
2021/11/02 23:33:18;;;;;;;25.30;17.55;;;;;;;6.42;89.72;100044.97;10268309;28;20074;-70
2021/11/02 23:38:15;;;;;;;23.98;16.85;;;;;;;6.40;89.82;100039.03;10254655;28;20076;-70
2021/11/02 23:43:13;;;;;;;25.63;16.85;;;;;;;6.36;90.08;100039.94;10261764;28;20136;-71
2021/11/02 23:48:11;;;;;;;23.60;17.55;;;;;;;6.27;89.26;100042.59;10258612;28;20071;-70
2021/11/02 23:53:09;;;;;;;24.70;17.25;;;;;;;6.21;88.88;100041.09;10264344;28;20057;-71
2021/11/02 23:58:05;;;;;;;24.98;17.30;;;;;;;6.18;88.68;100047.16;10260003;28;20131;-71
